Time;durP1;ratioP1;P1;durP2;ratioP2;P2;SDS_P1;SDS_P2;PMS_P1;PMS_P2;Temp;Humidity;BMP_temperature;BMP_pressure;BME280_temperature;BME280_humidity;BME280_pressure;Samples;Min_cycle;Max_cycle;Signal;HPM_P1;HPM_P2
2023/06/02 00:01:31;;;;;;;3.72;2.90;;;22.70;46.70;;;;;;4978326;28;20264;-80
2023/06/02 00:04:01;;;;;;;3.13;2.83;;;22.60;46.50;;;;;;4994629;28;20217;-80
2023/06/02 00:06:30;;;;;;;3.47;2.80;;;22.60;46.70;;;;;;4993663;28;20199;-80
2023/06/02 00:08:58;;;;;;;3.63;2.97;;;22.60;46.80;;;;;;4994741;28;20189;-81
2023/06/02 00:11:26;;;;;;;3.08;2.80;;;22.60;46.80;;;;;;4993815;28;20189;-81
2023/06/02 00:13:53;;;;;;;3.65;2.90;;;22.60;46.70;;;;;;4993729;28;20194;-81
2023/06/02 00:16:20;;;;;;;3.20;2.90;;;22.50;46.70;;;;;;4994181;28;20237;-81
2023/06/02 00:18:47;;;;;;;3.08;2.72;;;22.50;46.80;;;;;;4994057;28;20344;-81
2023/06/02 00:21:18;;;;;;;3.17;2.88;;;22.50;46.80;;;;;;5030093;22;20270;-81
2023/06/02 00:23:46;;;;;;;3.42;2.72;;;22.50;47.10;;;;;;5006041;28;20218;-78
2023/06/02 00:26:13;;;;;;;3.17;2.88;;;22.50;46.70;;;;;;4993403;28;20193;-78
2023/06/02 00:28:41;;;;;;;2.95;2.72;;;22.50;46.90;;;;;;4993869;28;20197;-78
2023/06/02 00:31:08;;;;;;;3.40;3.10;;;22.50;46.80;;;;;;4993404;28;20189;-77
2023/06/02 00:33:35;;;;;;;3.97;3.00;;;22.40;46.50;;;;;;4995413;28;20215;-77
2023/06/02 00:36:02;;;;;;;4.00;3.10;;;22.40;46.70;;;;;;4997529;28;20694;-77
2023/06/02 00:38:30;;;;;;;3.33;3.03;;;22.40;46.70;;;;;;4997663;28;20301;-77
2023/06/02 00:40:57;;;;;;;3.00;2.80;;;22.40;46.70;;;;;;4997725;28;20702;-77
2023/06/02 00:43:24;;;;;;;3.28;2.92;;;22.40;46.80;;;;;;4998191;28;20224;-77
2023/06/02 00:45:51;;;;;;;3.20;2.90;;;22.40;46.60;;;;;;4998787;28;20213;-77
2023/06/02 00:48:18;;;;;;;3.08;2.70;;;22.40;46.70;;;;;;4997634;28;20201;-76
2023/06/02 00:50:45;;;;;;;3.67;3.15;;;22.40;46.80;;;;;;4997548;28;20208;-76
2023/06/02 00:53:12;;;;;;;4.25;3.00;;;22.30;46.70;;;;;;4997178;28;20251;-76
2023/06/02 00:55:40;;;;;;;3.55;2.90;;;22.30;46.60;;;;;;4996703;28;20582;-77
2023/06/02 00:58:07;;;;;;;3.58;3.10;;;22.30;46.80;;;;;;4996639;28;20189;-77
2023/06/02 01:00:36;;;;;;;3.17;2.85;;;22.30;46.60;;;;;;4996612;28;20198;-77
2023/06/02 01:03:04;;;;;;;2.90;2.70;;;22.30;46.70;;;;;;4996511;28;20702;-77
2023/06/02 01:05:31;;;;;;;3.53;3.20;;;22.30;46.70;;;;;;4996676;28;20209;-77
2023/06/02 01:08:00;;;;;;;5.35;3.30;;;22.30;46.50;;;;;;4996643;28;20198;-77
2023/06/02 01:10:27;;;;;;;3.30;3.00;;;22.30;46.90;;;;;;4997234;28;20198;-77
2023/06/02 01:12:56;;;;;;;3.53;3.22;;;22.20;46.60;;;;;;4996430;28;20189;-77
2023/06/02 01:15:23;;;;;;;3.55;3.17;;;22.20;46.50;;;;;;4996583;28;20213;-77
2023/06/02 01:17:53;;;;;;;3.50;3.20;;;22.20;46.60;;;;;;4996475;28;20224;-77
2023/06/02 01:20:21;;;;;;;3.33;3.03;;;22.20;46.70;;;;;;4996403;28;20202;-77
2023/06/02 01:22:56;;;;;;;3.50;3.20;;;22.20;46.70;;;;;;4997070;28;20553;-77
2023/06/02 01:25:25;;;;;;;3.17;2.88;;;22.10;46.60;;;;;;4997252;28;20217;-77
2023/06/02 01:27:52;;;;;;;3.38;3.08;;;22.10;46.60;;;;;;4996329;28;20660;-77
2023/06/02 01:30:19;;;;;;;3.95;2.90;;;22.10;46.60;;;;;;4996174;28;20202;-77
2023/06/02 01:32:51;;;;;;;3.30;3.00;;;22.10;46.80;;;;;;4997480;28;20197;-77
2023/06/02 01:35:19;;;;;;;3.33;3.03;;;22.10;46.70;;;;;;4997355;28;20213;-77
2023/06/02 01:37:48;;;;;;;3.58;2.88;;;22.10;46.80;;;;;;4996664;28;20215;-77
2023/06/02 01:40:16;;;;;;;3.30;3.00;;;22.10;47.10;;;;;;4996127;28;20611;-77
2023/06/02 01:42:44;;;;;;;3.55;3.15;;;22.10;46.90;;;;;;4980939;28;20276;-76
2023/06/02 01:45:11;;;;;;;3.58;3.17;;;22.00;46.80;;;;;;4995112;28;20287;-77
2023/06/02 01:47:38;;;;;;;3.67;3.25;;;22.00;46.80;;;;;;4995896;28;20224;-77
2023/06/02 01:50:06;;;;;;;3.53;3.10;;;22.00;46.90;;;;;;4996033;28;20212;-77
2023/06/02 01:52:33;;;;;;;3.53;3.20;;;22.00;47.00;;;;;;4996960;28;20190;-77
2023/06/02 01:55:00;;;;;;;3.40;3.10;;;22.00;46.90;;;;;;4995610;28;20229;-77
2023/06/02 01:57:28;;;;;;;3.45;3.13;;;22.00;46.90;;;;;;4996254;28;20193;-77
2023/06/02 01:59:56;;;;;;;3.22;2.92;;;22.00;46.70;;;;;;4995927;28;20202;-77
2023/06/02 02:02:23;;;;;;;3.47;3.13;;;22.00;47.00;;;;;;4996651;28;20582;-77
2023/06/02 02:04:50;;;;;;;4.30;3.20;;;22.00;47.00;;;;;;4996500;28;20320;-77
2023/06/02 02:07:19;;;;;;;3.72;3.38;;;21.90;47.20;;;;;;4997229;28;20556;-77
2023/06/02 02:09:46;;;;;;;4.03;3.40;;;22.00;47.10;;;;;;4997180;28;20667;-77
2023/06/02 02:12:14;;;;;;;3.67;3.17;;;21.90;47.20;;;;;;4997272;28;20197;-77
2023/06/02 02:14:41;;;;;;;3.70;3.40;;;21.90;47.20;;;;;;4979450;28;20217;-77
2023/06/02 02:17:11;;;;;;;3.40;3.10;;;21.90;47.20;;;;;;4995402;28;20231;-77
2023/06/02 02:19:38;;;;;;;3.85;3.47;;;21.90;47.10;;;;;;4995346;28;20197;-77
2023/06/02 02:22:06;;;;;;;3.65;3.33;;;21.90;47.30;;;;;;4978793;28;20222;-77
2023/06/02 02:24:33;;;;;;;4.50;3.15;;;21.90;47.20;;;;;;4995465;28;20217;-77
2023/06/02 02:27:00;;;;;;;4.10;2.78;;;21.90;47.20;;;;;;4995384;28;20204;-77
2023/06/02 02:29:28;;;;;;;3.95;3.00;;;21.90;47.30;;;;;;4995474;28;20586;-77
2023/06/02 02:31:55;;;;;;;3.78;3.22;;;21.80;47.20;;;;;;4995342;28;20193;-77
2023/06/02 02:34:25;;;;;;;3.70;3.30;;;21.80;47.30;;;;;;4995517;28;20221;-77
2023/06/02 02:36:55;;;;;;;3.55;3.25;;;21.80;47.30;;;;;;4996986;28;20194;-77
2023/06/02 02:39:22;;;;;;;3.72;3.42;;;21.80;47.10;;;;;;4995101;28;20217;-77
2023/06/02 02:41:49;;;;;;;3.53;3.15;;;21.80;47.10;;;;;;4995617;28;20194;-77
2023/06/02 02:44:17;;;;;;;3.53;3.13;;;21.80;47.20;;;;;;4994952;28;20706;-77
2023/06/02 02:46:44;;;;;;;3.47;3.17;;;21.70;47.30;;;;;;4995652;28;20225;-77
2023/06/02 02:49:12;;;;;;;3.42;3.13;;;21.70;47.10;;;;;;4997013;28;20201;-77
2023/06/02 02:51:40;;;;;;;3.80;3.40;;;21.70;47.20;;;;;;4995692;28;20209;-77
2023/06/02 02:54:07;;;;;;;3.60;3.30;;;21.70;47.20;;;;;;4998069;28;20221;-77
2023/06/02 02:56:36;;;;;;;3.75;3.45;;;21.70;47.10;;;;;;4999811;28;20197;-78
2023/06/02 02:59:03;;;;;;;3.58;3.28;;;21.70;47.10;;;;;;4983132;28;20292;-78
2023/06/02 03:01:32;;;;;;;4.10;3.40;;;21.70;47.10;;;;;;4994951;28;20215;-77
2023/06/02 03:03:59;;;;;;;3.78;3.40;;;21.70;47.10;;;;;;4996103;28;20575;-77
2023/06/02 03:06:31;;;;;;;3.90;3.50;;;21.60;47.10;;;;;;4995106;28;20221;-77
2023/06/02 03:09:00;;;;;;;3.40;3.10;;;21.60;47.10;;;;;;4994633;28;20197;-77
2023/06/02 03:11:27;;;;;;;3.97;3.67;;;21.70;47.10;;;;;;4994991;28;20529;-77
2023/06/02 03:13:54;;;;;;;3.60;3.30;;;21.60;47.10;;;;;;4994422;28;20197;-77
2023/06/02 03:16:22;;;;;;;3.53;3.20;;;21.60;47.50;;;;;;4994725;28;20197;-77
2023/06/02 03:18:49;;;;;;;4.22;3.55;;;21.60;47.60;;;;;;4994388;28;20208;-77
2023/06/02 03:21:17;;;;;;;4.95;3.80;;;21.60;47.50;;;;;;4994146;28;20256;-77
2023/06/02 03:23:45;;;;;;;3.65;3.33;;;21.60;47.40;;;;;;4994012;28;20276;-77
2023/06/02 03:26:14;;;;;;;4.78;3.63;;;21.60;47.60;;;;;;4994510;28;20205;-77
2023/06/02 03:28:42;;;;;;;3.53;3.22;;;21.60;47.40;;;;;;4994171;28;20240;-77
2023/06/02 03:31:09;;;;;;;3.63;3.33;;;21.70;47.50;;;;;;4978830;28;20197;-77
2023/06/02 03:33:36;;;;;;;3.72;3.40;;;21.70;47.20;;;;;;4994009;28;20193;-77
2023/06/02 03:36:04;;;;;;;3.80;3.40;;;21.70;47.20;;;;;;4993778;28;20208;-77
2023/06/02 03:38:31;;;;;;;4.30;3.65;;;21.80;47.30;;;;;;4993867;28;20204;-77
2023/06/02 03:40:58;;;;;;;4.72;3.38;;;21.80;47.20;;;;;;5067406;22;20326;-80
2023/06/02 03:43:27;;;;;;;3.78;3.47;;;21.80;47.20;;;;;;5037818;28;20585;-81
2023/06/02 03:45:55;;;;;;;3.83;3.50;;;21.80;47.20;;;;;;5017618;28;20213;-81
2023/06/02 03:48:22;;;;;;;3.42;3.13;;;21.80;47.20;;;;;;4998205;28;20287;-81
2023/06/02 03:50:50;;;;;;;3.92;3.42;;;21.90;47.30;;;;;;5013702;28;20196;-81
2023/06/02 03:53:17;;;;;;;4.32;3.92;;;21.90;47.20;;;;;;4997606;28;20200;-81
2023/06/02 03:55:45;;;;;;;4.10;3.65;;;21.90;47.10;;;;;;5013339;28;20307;-81
2023/06/02 03:58:14;;;;;;;4.65;4.05;;;21.90;47.20;;;;;;5013835;28;20254;-81
2023/06/02 04:00:44;;;;;;;3.65;3.35;;;21.90;47.10;;;;;;4999352;28;20200;-79
2023/06/02 04:03:11;;;;;;;4.18;3.78;;;21.90;47.20;;;;;;5016398;28;20267;-79
2023/06/02 04:05:39;;;;;;;3.80;3.40;;;21.90;47.10;;;;;;5016196;28;20283;-79
2023/06/02 04:08:07;;;;;;;3.50;3.20;;;21.90;47.30;;;;;;5015054;28;20635;-79
2023/06/02 04:10:34;;;;;;;4.53;3.72;;;21.90;47.30;;;;;;5015738;28;20201;-79
2023/06/02 04:13:01;;;;;;;5.35;3.80;;;21.90;47.00;;;;;;5015795;28;20197;-79
2023/06/02 04:15:28;;;;;;;3.75;3.45;;;21.90;47.10;;;;;;5015738;28;20590;-79
2023/06/02 04:17:58;;;;;;;3.97;3.58;;;21.90;47.10;;;;;;5016059;28;20648;-79
2023/06/02 04:20:25;;;;;;;4.38;3.60;;;21.90;47.10;;;;;;5015834;28;20207;-79
2023/06/02 04:22:53;;;;;;;3.90;3.58;;;22.00;47.10;;;;;;5031615;28;20248;-79
2023/06/02 04:25:20;;;;;;;4.18;3.58;;;21.90;47.10;;;;;;5026079;28;20223;-79
2023/06/02 04:27:47;;;;;;;4.00;3.60;;;21.90;47.20;;;;;;5019419;28;20197;-79
2023/06/02 04:30:15;;;;;;;4.20;3.72;;;21.90;47.10;;;;;;5017868;28;20264;-79
2023/06/02 04:32:43;;;;;;;4.53;3.83;;;21.90;47.10;;;;;;5016705;28;20213;-79
2023/06/02 04:35:12;;;;;;;4.68;4.28;;;22.00;47.10;;;;;;5014509;28;20221;-79
2023/06/02 04:37:43;;;;;;;4.30;3.90;;;22.00;47.10;;;;;;5013210;28;20643;-79
2023/06/02 04:40:12;;;;;;;4.05;3.65;;;22.00;47.20;;;;;;5012854;28;20208;-80
2023/06/02 04:42:39;;;;;;;4.00;3.60;;;22.00;47.00;;;;;;5013096;28;20224;-79
2023/06/02 04:45:12;;;;;;;4.30;3.78;;;22.10;46.90;;;;;;5013346;28;20213;-79
2023/06/02 04:47:40;;;;;;;4.15;3.72;;;22.30;46.70;;;;;;5013509;28;20204;-84
2023/06/02 04:50:09;;;;;;;4.18;3.55;;;22.40;46.40;;;;;;5013316;28;20242;-81
2023/06/02 04:52:40;;;;;;;4.40;4.00;;;22.60;46.20;;;;;;5013288;28;20684;-80
2023/06/02 04:55:09;;;;;;;4.38;3.72;;;22.70;45.70;;;;;;5013947;28;20216;-80
2023/06/02 04:57:39;;;;;;;3.63;3.33;;;22.90;45.50;;;;;;5013285;28;20236;-80
2023/06/02 05:00:08;;;;;;;3.80;3.50;;;23.10;45.30;;;;;;5016151;28;20730;-82
2023/06/02 05:02:37;;;;;;;3.90;3.60;;;23.30;45.10;;;;;;5012966;28;20734;-82
2023/06/02 05:05:06;;;;;;;4.40;4.00;;;23.40;44.80;;;;;;5013300;28;20225;-82
2023/06/02 05:07:34;;;;;;;5.13;3.90;;;23.60;44.50;;;;;;5012674;28;20193;-82
2023/06/02 05:10:03;;;;;;;4.32;3.92;;;23.70;44.20;;;;;;4980869;28;20200;-81
2023/06/02 05:12:30;;;;;;;5.43;4.38;;;23.80;44.00;;;;;;5012875;28;20268;-80
2023/06/02 05:14:59;;;;;;;4.68;4.20;;;23.90;43.60;;;;;;5015579;28;20575;-80
2023/06/02 05:17:26;;;;;;;7.05;5.40;;;24.00;42.80;;;;;;5000287;28;20216;-81
2023/06/02 05:19:55;;;;;;;6.65;5.93;;;24.00;41.90;;;;;;5016704;28;20197;-81
2023/06/02 05:22:23;;;;;;;6.55;5.88;;;23.80;41.70;;;;;;5020475;28;20197;-81
2023/06/02 05:24:50;;;;;;;6.60;5.80;;;23.60;41.80;;;;;;5020844;28;20598;-83
2023/06/02 05:27:19;;;;;;;7.25;6.07;;;23.60;41.80;;;;;;5020858;28;20197;-82
2023/06/02 05:29:46;;;;;;;7.47;6.35;;;23.50;42.20;;;;;;5018288;28;20690;-82
2023/06/02 05:32:13;;;;;;;19.27;6.75;;;23.40;42.50;;;;;;5017605;28;20204;-82
2023/06/02 05:34:43;;;;;;;12.88;6.22;;;23.20;42.60;;;;;;5003435;28;20275;-81
2023/06/02 05:37:11;;;;;;;8.13;5.70;;;23.20;43.00;;;;;;5019825;28;20197;-82
2023/06/02 05:39:39;;;;;;;8.55;5.80;;;23.30;43.20;;;;;;5020073;28;20268;-84
2023/06/02 05:42:07;;;;;;;7.25;5.90;;;23.20;43.00;;;;;;5019749;28;20208;-83
2023/06/02 05:44:36;;;;;;;6.82;5.78;;;23.10;42.80;;;;;;5019719;28;20228;-81
2023/06/02 05:47:03;;;;;;;6.97;5.60;;;23.20;43.60;;;;;;5020690;28;20204;-81
2023/06/02 05:49:32;;;;;;;6.47;5.70;;;23.10;43.50;;;;;;5020983;28;20298;-81
2023/06/02 05:52:00;;;;;;;5.85;5.20;;;23.20;43.80;;;;;;5021358;28;20247;-82
2023/06/02 05:54:27;;;;;;;6.00;5.40;;;23.40;43.30;;;;;;5021481;28;20262;-82
2023/06/02 05:56:55;;;;;;;5.72;5.00;;;23.70;43.00;;;;;;5027799;28;20223;-82
2023/06/02 05:59:24;;;;;;;5.47;4.97;;;23.90;42.70;;;;;;5032576;28;20196;-81
2023/06/02 06:01:54;;;;;;;5.57;4.63;;;24.10;42.40;;;;;;5032665;28;20197;-80
2023/06/02 06:04:22;;;;;;;6.07;4.97;;;24.30;42.00;;;;;;5032272;28;20228;-80
2023/06/02 06:06:49;;;;;;;4.82;4.38;;;24.50;41.80;;;;;;5030573;28;20581;-81
2023/06/02 06:09:17;;;;;;;5.30;4.50;;;24.70;41.40;;;;;;5022976;28;20205;-82
2023/06/02 06:11:45;;;;;;;5.30;4.78;;;24.80;41.10;;;;;;5027795;28;20192;-81
2023/06/02 06:14:18;;;;;;;5.57;4.45;;;25.00;41.50;;;;;;5018217;28;20233;-82
2023/06/02 06:16:47;;;;;;;5.50;4.88;;;25.10;40.70;;;;;;5017313;28;20209;-82
2023/06/02 06:19:16;;;;;;;5.45;4.95;;;25.20;40.50;;;;;;5021323;28;20197;-82
2023/06/02 06:21:43;;;;;;;5.90;4.95;;;25.40;40.30;;;;;;5016551;28;20201;-81
2023/06/02 06:24:11;;;;;;;4.88;4.45;;;25.40;40.00;;;;;;5017164;28;20231;-82
2023/06/02 06:26:39;;;;;;;5.45;4.35;;;25.60;40.10;;;;;;5016269;28;20251;-81
2023/06/02 06:29:06;;;;;;;5.00;4.60;;;25.70;39.70;;;;;;5016745;28;20197;-82
2023/06/02 06:31:35;;;;;;;5.55;4.18;;;25.80;39.60;;;;;;5022258;28;20205;-82
2023/06/02 06:34:04;;;;;;;5.13;4.13;;;25.90;39.30;;;;;;5027884;28;20216;-82
2023/06/02 06:36:35;;;;;;;5.82;4.60;;;25.90;39.10;;;;;;5028784;28;20201;-82
2023/06/02 06:39:02;;;;;;;5.22;4.60;;;26.00;39.00;;;;;;5023623;28;20205;-82
2023/06/02 06:41:30;;;;;;;5.20;4.68;;;26.10;38.90;;;;;;5020044;28;20200;-81
2023/06/02 06:43:58;;;;;;;5.45;4.72;;;26.20;38.80;;;;;;5018810;28;20263;-81
2023/06/02 06:46:27;;;;;;;4.57;4.18;;;26.20;38.60;;;;;;5002749;28;20219;-81
2023/06/02 06:48:55;;;;;;;5.13;4.63;;;26.30;38.50;;;;;;5018738;28;20203;-83
2023/06/02 06:51:22;;;;;;;4.97;4.50;;;26.40;38.40;;;;;;5018273;28;20208;-79
2023/06/02 06:53:51;;;;;;;4.93;4.43;;;26.40;38.40;;;;;;5017893;28;20196;-81
2023/06/02 06:56:18;;;;;;;5.13;4.63;;;26.50;38.30;;;;;;5019250;28;20197;-81
2023/06/02 06:58:45;;;;;;;4.70;4.28;;;26.50;38.70;;;;;;5017897;28;20201;-81
2023/06/02 07:01:13;;;;;;;5.18;4.68;;;26.60;38.00;;;;;;5019358;28;20200;-81
2023/06/02 07:03:40;;;;;;;5.55;4.50;;;26.60;38.00;;;;;;5021465;28;20216;-81
2023/06/02 07:06:08;;;;;;;4.47;4.07;;;26.70;37.90;;;;;;5020085;28;20204;-81
2023/06/02 07:08:36;;;;;;;5.38;4.75;;;26.70;37.80;;;;;;5026688;28;20295;-81
2023/06/02 07:11:05;;;;;;;5.25;4.75;;;26.80;37.70;;;;;;5025671;28;20205;-81
2023/06/02 07:13:32;;;;;;;4.35;4.00;;;26.80;37.60;;;;;;5022387;28;20196;-81
2023/06/02 07:15:59;;;;;;;4.70;4.30;;;26.90;37.60;;;;;;5003658;28;20216;-81
2023/06/02 07:18:26;;;;;;;4.68;4.28;;;26.90;37.50;;;;;;5020132;28;20189;-81
2023/06/02 07:20:53;;;;;;;5.28;4.55;;;26.90;37.40;;;;;;5017267;28;20259;-80
2023/06/02 07:23:21;;;;;;;4.55;4.15;;;27.00;37.30;;;;;;4998108;28;20196;-81
2023/06/02 07:25:48;;;;;;;4.72;4.25;;;27.00;37.30;;;;;;5014637;28;20251;-81
2023/06/02 07:28:17;;;;;;;4.80;4.40;;;27.00;37.20;;;;;;5014219;28;20196;-81
2023/06/02 07:30:47;;;;;;;6.03;4.32;;;27.10;37.20;;;;;;5015001;28;20598;-81
2023/06/02 07:33:15;;;;;;;4.57;4.18;;;27.10;37.20;;;;;;5015424;28;20193;-81
2023/06/02 07:35:41;;;;;;;4.70;4.10;;;27.10;37.20;;;;;;4998898;28;20220;-82
2023/06/02 07:38:09;;;;;;;5.18;4.68;;;27.20;37.10;;;;;;5017811;28;20642;-83
2023/06/02 07:40:36;;;;;;;4.85;4.35;;;27.20;37.10;;;;;;4999467;28;20208;-82
2023/06/02 07:43:04;;;;;;;4.88;4.28;;;27.20;37.30;;;;;;5015150;28;20200;-82
2023/06/02 07:45:33;;;;;;;4.82;4.32;;;27.30;37.00;;;;;;5014509;28;20277;-82
2023/06/02 07:48:00;;;;;;;4.35;3.97;;;27.30;36.90;;;;;;5014717;28;20661;-82
2023/06/02 07:50:28;;;;;;;4.68;4.25;;;27.30;36.80;;;;;;5015401;28;20228;-83
2023/06/02 07:52:56;;;;;;;4.40;4.10;;;27.30;36.80;;;;;;5014374;28;20218;-82
2023/06/02 07:55:24;;;;;;;4.63;4.00;;;27.40;36.80;;;;;;5013935;28;20216;-82
2023/06/02 07:57:54;;;;;;;4.68;4.20;;;27.40;36.70;;;;;;5016254;28;20191;-83
2023/06/02 08:00:22;;;;;;;4.05;3.65;;;27.50;36.60;;;;;;5014686;28;20231;-82
2023/06/02 08:02:51;;;;;;;4.22;3.92;;;27.50;36.60;;;;;;5015608;28;20633;-82
2023/06/02 08:05:18;;;;;;;4.57;4.18;;;27.50;36.50;;;;;;5015587;28;20223;-82
2023/06/02 08:07:45;;;;;;;4.55;4.10;;;27.50;36.40;;;;;;5016320;28;20677;-82
2023/06/02 08:10:12;;;;;;;4.40;4.00;;;27.60;36.40;;;;;;5015810;28;20204;-82
2023/06/02 08:12:40;;;;;;;4.50;4.10;;;27.60;36.40;;;;;;5015796;28;20200;-82
2023/06/02 08:15:08;;;;;;;3.67;3.35;;;27.60;36.40;;;;;;4999209;28;20578;-82
2023/06/02 08:17:35;;;;;;;4.20;3.80;;;27.70;36.40;;;;;;5015596;28;20191;-82
2023/06/02 08:20:06;;;;;;;4.32;3.85;;;27.70;36.30;;;;;;5015672;28;20662;-82
2023/06/02 08:22:33;;;;;;;4.15;3.85;;;27.70;36.40;;;;;;5013498;28;20199;-82
2023/06/02 08:25:02;;;;;;;4.22;3.83;;;27.70;36.30;;;;;;5014000;28;20215;-83
2023/06/02 08:27:30;;;;;;;4.65;4.18;;;27.70;36.30;;;;;;5014927;28;20211;-83
2023/06/02 08:29:57;;;;;;;4.30;3.90;;;27.70;36.30;;;;;;5015335;28;20232;-83
2023/06/02 08:32:25;;;;;;;4.47;4.07;;;27.70;36.40;;;;;;5015192;28;20203;-83
2023/06/02 08:34:54;;;;;;;4.15;3.75;;;27.70;36.50;;;;;;4999330;28;20240;-79
2023/06/02 08:37:23;;;;;;;4.22;3.90;;;27.70;36.50;;;;;;5015161;28;20226;-79
2023/06/02 08:39:51;;;;;;;4.53;4.13;;;27.70;36.50;;;;;;5014771;28;20208;-81
2023/06/02 08:42:22;;;;;;;4.35;3.90;;;27.70;36.50;;;;;;5014142;28;20204;-83
2023/06/02 08:44:49;;;;;;;4.45;4.05;;;27.70;36.50;;;;;;5014173;28;20228;-82
2023/06/02 08:47:16;;;;;;;4.00;3.65;;;27.70;36.40;;;;;;5013224;28;20222;-82
2023/06/02 08:49:45;;;;;;;4.13;3.72;;;27.80;36.50;;;;;;5012960;28;20207;-82
2023/06/02 08:52:15;;;;;;;4.35;3.95;;;27.70;36.40;;;;;;5013162;28;20234;-82
2023/06/02 08:54:44;;;;;;;4.45;3.95;;;27.80;36.50;;;;;;5014613;28;20244;-82
2023/06/02 08:57:12;;;;;;;4.35;3.80;;;27.80;36.40;;;;;;5016802;28;20250;-82
2023/06/02 08:59:42;;;;;;;3.92;3.63;;;27.80;36.40;;;;;;5017415;28;20247;-82
2023/06/02 09:02:10;;;;;;;4.20;3.80;;;27.80;36.40;;;;;;5018885;28;20207;-82
2023/06/02 09:04:37;;;;;;;4.68;3.97;;;27.80;36.40;;;;;;5019235;28;20270;-82
2023/06/02 09:07:19;;;;;;;4.10;3.80;;;27.80;36.30;;;;;;5018495;28;20559;-82
2023/06/02 09:09:48;;;;;;;3.88;3.58;;;27.80;36.90;;;;;;5017192;28;20228;-82
2023/06/02 09:12:17;;;;;;;4.07;3.78;;;27.80;36.30;;;;;;5016404;28;20200;-82
2023/06/02 09:14:45;;;;;;;4.07;3.70;;;27.90;36.40;;;;;;5017496;28;20254;-80
2023/06/02 09:17:26;;;;;;;4.20;3.90;;;27.80;36.20;;;;;;5016436;28;20199;-81
2023/06/02 09:19:53;;;;;;;4.15;3.80;;;27.80;36.20;;;;;;5016229;28;20196;-81
2023/06/02 09:22:21;;;;;;;3.83;3.42;;;27.80;36.30;;;;;;5016031;28;20200;-79
2023/06/02 09:24:49;;;;;;;4.25;3.85;;;27.80;36.30;;;;;;5016227;28;20223;-81
2023/06/02 09:27:17;;;;;;;4.03;3.63;;;27.90;36.30;;;;;;5016165;28;20235;-81
2023/06/02 09:29:45;;;;;;;3.92;3.63;;;27.80;36.30;;;;;;5016469;28;20200;-82
2023/06/02 09:32:14;;;;;;;3.80;3.50;;;27.80;36.30;;;;;;5018515;28;20204;-82
2023/06/02 09:34:41;;;;;;;4.07;3.75;;;27.90;36.40;;;;;;5025129;28;20208;-82
2023/06/02 09:37:09;;;;;;;4.07;3.75;;;27.90;36.40;;;;;;5035411;28;20207;-82
2023/06/02 09:39:38;;;;;;;3.60;3.30;;;27.90;36.40;;;;;;5035739;28;20204;-82
2023/06/02 09:42:07;;;;;;;4.50;4.10;;;27.90;36.40;;;;;;5018545;28;20200;-82
2023/06/02 09:44:34;;;;;;;4.32;3.78;;;27.90;36.50;;;;;;5023308;28;20264;-82
2023/06/02 09:47:02;;;;;;;4.25;3.70;;;27.90;36.40;;;;;;5031670;28;20208;-81
2023/06/02 09:49:40;;;;;;;3.97;3.67;;;27.80;36.40;;;;;;5027031;28;20224;-81
2023/06/02 09:52:15;;;;;;;4.00;3.70;;;27.80;36.40;;;;;;5023630;28;20661;-81
2023/06/02 09:54:43;;;;;;;3.65;3.30;;;27.80;36.50;;;;;;5016922;28;20212;-81
2023/06/02 09:57:12;;;;;;;4.20;3.80;;;27.80;36.60;;;;;;5016128;28;20218;-81
2023/06/02 09:59:40;;;;;;;3.92;3.63;;;27.80;37.20;;;;;;5016950;28;20278;-82
2023/06/02 10:02:08;;;;;;;4.70;4.13;;;27.80;36.60;;;;;;5016382;28;20215;-83
2023/06/02 10:04:37;;;;;;;4.15;3.75;;;27.80;36.70;;;;;;5016402;28;20212;-82
2023/06/02 10:07:15;;;;;;;3.72;3.42;;;27.70;37.30;;;;;;5015266;28;20267;-82
2023/06/02 10:09:54;;;;;;;3.70;3.40;;;27.70;36.70;;;;;;5015585;28;20761;-82
2023/06/02 10:12:33;;;;;;;4.10;3.60;;;27.70;36.90;;;;;;5018077;28;20199;-82
2023/06/02 10:15:16;;;;;;;3.70;3.40;;;27.70;36.90;;;;;;5017761;28;20278;-83
2023/06/02 10:17:48;;;;;;;3.63;3.30;;;27.70;37.00;;;;;;5018653;28;20204;-81
2023/06/02 10:20:25;;;;;;;3.78;3.47;;;27.60;37.60;;;;;;5016913;28;20239;-80
2023/06/02 10:23:11;;;;;;;4.05;3.75;;;27.60;37.10;;;;;;5016891;28;20654;-81
2023/06/02 10:25:47;;;;;;;4.15;3.75;;;27.60;37.20;;;;;;5014501;28;20232;-81
2023/06/02 10:28:15;;;;;;;4.10;3.80;;;27.50;37.20;;;;;;5016556;28;20251;-81
2023/06/02 10:30:43;;;;;;;3.75;3.40;;;27.50;37.90;;;;;;5016653;28;20196;-81
2023/06/02 10:33:11;;;;;;;4.13;3.72;;;27.50;37.40;;;;;;5016411;28;20561;-81
2023/06/02 10:35:58;;;;;;;4.00;3.60;;;27.40;37.40;;;;;;5016352;28;20564;-81
2023/06/02 10:38:36;;;;;;;4.50;4.10;;;27.40;37.40;;;;;;5000547;28;20195;-81
2023/06/02 10:41:05;;;;;;;3.92;3.63;;;27.40;37.60;;;;;;5017177;28;20206;-82
2023/06/02 10:43:35;;;;;;;3.80;3.50;;;27.30;37.60;;;;;;5016052;28;20200;-82
2023/06/02 10:46:20;;;;;;;3.80;3.50;;;27.30;37.70;;;;;;5016636;28;20274;-83
2023/06/02 10:48:47;;;;;;;3.78;3.47;;;27.20;37.80;;;;;;5016232;28;20211;-83
2023/06/02 10:51:15;;;;;;;3.97;3.58;;;27.20;37.90;;;;;;5015939;28;20626;-82
2023/06/02 10:54:14;;;;;;;3.95;3.65;;;27.20;38.00;;;;;;5016330;28;20203;-82
2023/06/02 10:56:42;;;;;;;4.10;3.70;;;27.10;38.10;;;;;;5015997;28;20197;-82
2023/06/02 10:59:11;;;;;;;4.30;3.90;;;27.10;38.20;;;;;;5016621;28;20188;-82
2023/06/02 11:01:46;;;;;;;3.53;3.33;;;27.00;38.40;;;;;;5016868;28;20290;-82
2023/06/02 11:04:34;;;;;;;3.97;3.63;;;26.90;38.50;;;;;;5018034;28;20219;-83
2023/06/02 11:07:18;;;;;;;3.58;3.25;;;26.90;38.70;;;;;;5012303;28;20201;-82
2023/06/02 11:09:45;;;;;;;3.92;3.63;;;26.80;38.70;;;;;;5017992;28;20228;-83
2023/06/02 11:12:13;;;;;;;4.10;3.80;;;26.80;38.90;;;;;;5001301;28;20199;-82
2023/06/02 11:15:17;;;;;;;3.95;3.58;;;26.80;39.00;;;;;;5016808;28;20693;-82
2023/06/02 11:17:47;;;;;;;3.78;3.42;;;26.70;39.00;;;;;;5016473;28;20299;-83
2023/06/02 11:20:15;;;;;;;3.65;3.35;;;26.70;39.20;;;;;;5014654;28;20295;-83
2023/06/02 11:22:43;;;;;;;3.63;3.33;;;26.70;39.20;;;;;;5006082;28;20192;-82
2023/06/02 11:25:10;;;;;;;4.00;3.70;;;26.60;39.20;;;;;;5029108;28;20228;-82
2023/06/02 11:27:39;;;;;;;3.97;3.67;;;26.60;39.30;;;;;;5023554;28;20283;-82
2023/06/02 11:30:09;;;;;;;3.63;3.40;;;26.60;39.30;;;;;;5019350;28;20200;-82
2023/06/02 11:32:38;;;;;;;3.95;3.45;;;26.60;39.30;;;;;;5018266;28;20188;-82
2023/06/02 11:35:07;;;;;;;3.97;3.67;;;26.60;39.40;;;;;;5016860;28;20216;-82
2023/06/02 11:37:36;;;;;;;3.75;3.28;;;26.60;39.50;;;;;;5014506;28;20652;-82
2023/06/02 11:40:05;;;;;;;3.85;3.55;;;26.60;39.50;;;;;;5013934;28;20215;-82
2023/06/02 11:42:40;;;;;;;3.20;3.00;;;26.60;39.50;;;;;;5013687;28;20577;-82
2023/06/02 11:45:18;;;;;;;3.63;3.40;;;26.60;39.50;;;;;;5013587;28;20212;-82
2023/06/02 11:47:48;;;;;;;3.80;3.40;;;26.60;39.50;;;;;;4997482;28;20231;-82
2023/06/02 11:50:17;;;;;;;4.07;3.38;;;26.60;39.60;;;;;;5016485;28;20222;-82
2023/06/02 11:52:45;;;;;;;3.90;3.60;;;26.60;39.60;;;;;;5016880;28;20196;-82
2023/06/02 11:55:12;;;;;;;3.47;3.17;;;26.60;39.50;;;;;;5000920;28;20227;-82
2023/06/02 11:57:39;;;;;;;3.65;3.35;;;26.60;39.60;;;;;;5016474;28;20283;-82
2023/06/02 12:00:12;;;;;;;3.80;3.50;;;26.60;40.20;;;;;;5016617;28;20204;-82
2023/06/02 12:02:40;;;;;;;3.72;3.42;;;26.50;39.60;;;;;;5015720;28;20286;-82
2023/06/02 12:05:10;;;;;;;3.67;3.38;;;26.60;39.60;;;;;;5016082;28;20280;-82
2023/06/02 12:07:38;;;;;;;3.72;3.42;;;26.60;39.70;;;;;;5015810;28;20721;-82
2023/06/02 12:10:07;;;;;;;3.50;3.25;;;26.60;39.70;;;;;;5016194;28;20335;-83
2023/06/02 12:12:34;;;;;;;3.75;3.45;;;26.60;39.70;;;;;;5016208;28;20224;-83
2023/06/02 12:15:17;;;;;;;3.50;3.20;;;26.60;39.70;;;;;;5014349;28;20223;-83
2023/06/02 12:17:45;;;;;;;3.60;3.30;;;26.60;39.70;;;;;;5011988;28;20601;-83
2023/06/02 12:20:14;;;;;;;3.90;3.30;;;26.60;39.70;;;;;;5014778;28;20208;-82
2023/06/02 12:22:54;;;;;;;3.80;3.50;;;26.60;39.70;;;;;;5017387;28;20634;-84
2023/06/02 12:25:21;;;;;;;3.30;3.10;;;26.60;39.70;;;;;;5015918;28;20227;-82
2023/06/02 12:27:50;;;;;;;3.65;3.40;;;26.60;39.70;;;;;;5014064;28;20647;-82
2023/06/02 12:30:17;;;;;;;3.65;3.35;;;26.60;39.70;;;;;;5016362;28;20200;-83
2023/06/02 12:32:44;;;;;;;3.22;3.03;;;26.60;39.70;;;;;;5017339;28;20191;-83
2023/06/02 12:35:11;;;;;;;3.45;3.20;;;26.60;39.70;;;;;;5018522;28;20216;-83
2023/06/02 12:37:43;;;;;;;3.47;3.28;;;26.60;39.70;;;;;;5017525;28;20541;-83
2023/06/02 12:40:11;;;;;;;3.83;3.53;;;26.60;39.70;;;;;;5018853;28;20267;-83
2023/06/02 12:42:38;;;;;;;3.28;3.05;;;26.60;39.80;;;;;;5019186;28;20202;-82
2023/06/02 12:45:06;;;;;;;3.63;3.33;;;26.60;39.80;;;;;;5022093;28;20220;-82
2023/06/02 12:47:34;;;;;;;3.30;3.10;;;26.50;39.80;;;;;;5029150;28;20295;-82
2023/06/02 12:50:05;;;;;;;3.65;3.35;;;26.50;39.80;;;;;;5031104;28;20251;-82
2023/06/02 12:52:32;;;;;;;3.58;3.28;;;26.50;39.80;;;;;;5015099;28;20207;-82
2023/06/02 12:55:01;;;;;;;3.63;3.35;;;26.50;39.80;;;;;;5028300;28;20678;-82
2023/06/02 12:57:28;;;;;;;3.92;3.63;;;26.50;39.90;;;;;;5028766;28;20661;-82